Time;durP1;ratioP1;P1;durP2;ratioP2;P2;SDS_P1;SDS_P2;PMS_P1;PMS_P2;Temp;Humidity;BMP_temperature;BMP_pressure;BME280_temperature;BME280_humidity;BME280_pressure;Samples;Min_cycle;Max_cycle;Signal;HPM_P1;HPM_P2
2022/04/27 00:00:07;;;;;;;19.83;17.73;;;;;;;;;;509836;28;1553;-84
2022/04/27 00:00:24;;;;;;;20.38;17.55;;;;;;;;;;511114;28;1460;-83
2022/04/27 00:00:39;;;;;;;21.58;17.90;;;;;;;;;;513492;28;1488;-84
2022/04/27 00:00:54;;;;;;;20.60;17.77;;;;;;;;;;515497;28;1672;-83
2022/04/27 00:01:14;;;;;;;20.08;17.67;;;;;;;;;;513116;28;1418;-84
2022/04/27 00:01:30;;;;;;;20.15;18.05;;;;;;;;;;513651;28;1416;-83
2022/04/27 00:01:45;;;;;;;20.17;17.93;;;;;;;;;;515410;28;1483;-83
2022/04/27 00:02:01;;;;;;;20.77;17.85;;;;;;;;;;516259;28;1431;-84
2022/04/27 00:02:17;;;;;;;21.10;17.67;;;;;;;;;;516356;28;1431;-83
2022/04/27 00:02:35;;;;;;;21.27;17.63;;;;;;;;;;514340;28;1381;-83
2022/04/27 00:02:51;;;;;;;21.85;18.27;;;;;;;;;;513738;28;1496;-84
2022/04/27 00:03:06;;;;;;;21.40;17.97;;;;;;;;;;514227;28;1595;-83
2022/04/27 00:03:22;;;;;;;19.90;17.45;;;;;;;;;;514766;28;2043;-84
2022/04/27 00:03:37;;;;;;;19.77;17.60;;;;;;;;;;513646;28;1642;-83
2022/04/27 00:03:53;;;;;;;19.45;17.35;;;;;;;;;;513135;28;1433;-84
2022/04/27 00:04:08;;;;;;;19.20;17.20;;;;;;;;;;513217;28;1584;-84
2022/04/27 00:04:23;;;;;;;19.83;17.73;;;;;;;;;;512777;28;1400;-84
2022/04/27 00:04:39;;;;;;;20.58;17.70;;;;;;;;;;514360;28;1576;-84
2022/04/27 00:04:54;;;;;;;21.57;17.80;;;;;;;;;;514403;28;1484;-83
2022/04/27 00:05:10;;;;;;;20.83;18.20;;;;;;;;;;515019;28;1631;-83
2022/04/27 00:05:25;;;;;;;20.45;18.25;;;;;;;;;;512987;28;1596;-82
2022/04/27 00:05:41;;;;;;;19.77;17.65;;;;;;;;;;514748;28;1565;-82
2022/04/27 00:05:56;;;;;;;19.80;17.07;;;;;;;;;;514769;28;1738;-82
2022/04/27 00:06:12;;;;;;;20.50;17.40;;;;;;;;;;515375;28;1596;-82
2022/04/27 00:06:27;;;;;;;20.00;17.53;;;;;;;;;;517315;28;1557;-82
2022/04/27 00:06:42;;;;;;;19.40;17.27;;;;;;;;;;516659;28;1550;-82
2022/04/27 00:06:58;;;;;;;19.75;17.30;;;;;;;;;;514835;28;1567;-82
2022/04/27 00:07:13;;;;;;;19.30;17.20;;;;;;;;;;515083;28;1621;-82
2022/04/27 00:07:28;;;;;;;19.27;17.00;;;;;;;;;;517006;28;1511;-82
2022/04/27 00:07:47;;;;;;;20.20;17.30;;;;;;;;;;517256;28;1549;-82
2022/04/27 00:08:02;;;;;;;20.40;17.50;;;;;;;;;;517227;28;1690;-82
2022/04/27 00:08:18;;;;;;;19.75;17.45;;;;;;;;;;515652;28;1380;-81
2022/04/27 00:08:33;;;;;;;19.90;17.30;;;;;;;;;;515061;28;1723;-82
2022/04/27 00:08:50;;;;;;;20.17;17.10;;;;;;;;;;513341;28;1630;-82
2022/04/27 00:09:06;;;;;;;19.77;16.98;;;;;;;;;;513615;28;1593;-82
2022/04/27 00:09:21;;;;;;;20.57;17.50;;;;;;;;;;512280;28;1560;-82
2022/04/27 00:09:36;;;;;;;20.42;17.35;;;;;;;;;;514207;28;1330;-81
2022/04/27 00:09:52;;;;;;;18.73;16.63;;;;;;;;;;513003;28;1624;-82
2022/04/27 00:10:07;;;;;;;19.00;16.97;;;;;;;;;;514032;28;1665;-82
2022/04/27 00:10:23;;;;;;;19.02;16.92;;;;;;;;;;513109;28;1712;-82
2022/04/27 00:10:39;;;;;;;19.35;16.88;;;;;;;;;;515035;28;1457;-81
2022/04/27 00:10:54;;;;;;;19.83;16.90;;;;;;;;;;511282;28;1541;-82
2022/04/27 00:11:09;;;;;;;19.67;16.77;;;;;;;;;;511933;28;1926;-82
2022/04/27 00:11:25;;;;;;;19.70;17.07;;;;;;;;;;513717;28;1610;-82
2022/04/27 00:11:40;;;;;;;18.97;16.90;;;;;;;;;;513692;28;1565;-82
2022/04/27 00:11:59;;;;;;;18.92;16.92;;;;;;;;;;513580;28;1663;-82
2022/04/27 00:12:14;;;;;;;20.95;17.33;;;;;;;;;;514056;28;1499;-82
2022/04/27 00:12:29;;;;;;;20.65;17.27;;;;;;;;;;515608;28;1558;-82
2022/04/27 00:12:46;;;;;;;19.90;17.37;;;;;;;;;;515943;28;1641;-82
2022/04/27 00:13:01;;;;;;;20.77;17.52;;;;;;;;;;517800;28;1396;-81
2022/04/27 00:13:16;;;;;;;20.45;17.10;;;;;;;;;;518335;28;2060;-82
2022/04/27 00:13:32;;;;;;;19.47;16.70;;;;;;;;;;519949;28;1648;-82
2022/04/27 00:13:47;;;;;;;19.43;16.90;;;;;;;;;;517421;28;1514;-82
2022/04/27 00:14:03;;;;;;;20.83;17.48;;;;;;;;;;517512;28;1586;-82
2022/04/27 00:14:19;;;;;;;20.70;17.63;;;;;;;;;;515349;28;1570;-82
2022/04/27 00:14:34;;;;;;;19.65;17.55;;;;;;;;;;515238;28;1763;-81
2022/04/27 00:14:49;;;;;;;20.15;17.55;;;;;;;;;;514925;28;1508;-82
2022/04/27 00:15:06;;;;;;;20.33;17.30;;;;;;;;;;515265;28;1444;-81
2022/04/27 00:15:25;;;;;;;19.17;16.90;;;;;;;;;;515009;28;1719;-82
2022/04/27 00:15:40;;;;;;;19.50;17.10;;;;;;;;;;516421;28;1420;-82
2022/04/27 00:15:56;;;;;;;18.67;16.48;;;;;;;;;;517232;28;1555;-82
2022/04/27 00:16:11;;;;;;;19.23;16.53;;;;;;;;;;515388;28;1453;-81
2022/04/27 00:16:27;;;;;;;20.17;17.27;;;;;;;;;;513941;28;1488;-82
2022/04/27 00:16:42;;;;;;;19.83;17.00;;;;;;;;;;513720;28;1527;-82
2022/04/27 00:16:59;;;;;;;20.10;17.20;;;;;;;;;;513863;28;1461;-82
2022/04/27 00:17:14;;;;;;;20.70;17.55;;;;;;;;;;512933;28;1536;-82
2022/04/27 00:17:29;;;;;;;19.77;17.20;;;;;;;;;;511883;28;1663;-82
2022/04/27 00:17:44;;;;;;;19.63;17.40;;;;;;;;;;511524;28;1524;-82
2022/04/27 00:18:00;;;;;;;19.33;17.17;;;;;;;;;;513592;28;1552;-82
2022/04/27 00:18:15;;;;;;;19.30;17.20;;;;;;;;;;513252;28;1532;-82
2022/04/27 00:18:31;;;;;;;19.13;17.03;;;;;;;;;;514848;28;1538;-82
2022/04/27 00:18:46;;;;;;;19.13;17.00;;;;;;;;;;515579;28;1539;-82
2022/04/27 00:19:02;;;;;;;19.23;16.73;;;;;;;;;;515315;28;1694;-81
2022/04/27 00:19:17;;;;;;;19.27;16.45;;;;;;;;;;513627;28;1603;-82
2022/04/27 00:19:33;;;;;;;19.90;16.80;;;;;;;;;;513109;28;1703;-82
2022/04/27 00:19:48;;;;;;;19.60;17.03;;;;;;;;;;511258;28;1484;-82
2022/04/27 00:20:05;;;;;;;20.45;17.27;;;;;;;;;;510679;29;1600;-81
2022/04/27 00:20:21;;;;;;;21.05;17.52;;;;;;;;;;513198;28;1450;-82
2022/04/27 00:20:36;;;;;;;20.80;17.48;;;;;;;;;;512850;28;1775;-82
2022/04/27 00:20:52;;;;;;;20.40;17.23;;;;;;;;;;513391;28;1402;-82
2022/04/27 00:21:07;;;;;;;20.33;16.98;;;;;;;;;;514525;28;1791;-82
2022/04/27 00:21:23;;;;;;;19.80;16.73;;;;;;;;;;515196;28;1575;-82
2022/04/27 00:21:38;;;;;;;20.13;17.15;;;;;;;;;;514988;28;1770;-82
2022/04/27 00:21:53;;;;;;;20.30;17.30;;;;;;;;;;515516;28;1741;-82
2022/04/27 00:22:09;;;;;;;20.03;17.37;;;;;;;;;;513006;28;1720;-82
2022/04/27 00:22:25;;;;;;;20.48;17.30;;;;;;;;;;513507;28;1540;-82
2022/04/27 00:22:40;;;;;;;20.53;17.33;;;;;;;;;;511605;28;1501;-82
2022/04/27 00:22:55;;;;;;;20.73;17.70;;;;;;;;;;513768;28;1485;-81
2022/04/27 00:23:11;;;;;;;20.93;17.80;;;;;;;;;;513873;28;1678;-82
2022/04/27 00:23:26;;;;;;;20.67;17.90;;;;;;;;;;514198;28;1625;-82
2022/04/27 00:23:42;;;;;;;20.83;17.90;;;;;;;;;;513170;28;2078;-81
2022/04/27 00:23:57;;;;;;;22.02;17.75;;;;;;;;;;513601;28;1472;-82
2022/04/27 00:24:12;;;;;;;21.33;17.53;;;;;;;;;;514185;28;1672;-82
2022/04/27 00:24:28;;;;;;;20.20;16.97;;;;;;;;;;513461;28;1571;-82
2022/04/27 00:24:43;;;;;;;20.55;16.83;;;;;;;;;;513201;28;1792;-82
2022/04/27 00:25:00;;;;;;;21.03;17.17;;;;;;;;;;513489;28;1369;-82
2022/04/27 00:25:16;;;;;;;19.65;17.52;;;;;;;;;;513556;28;1402;-82
2022/04/27 00:25:32;;;;;;;19.80;17.30;;;;;;;;;;513018;28;1661;-82
2022/04/27 00:25:48;;;;;;;19.95;17.38;;;;;;;;;;514587;28;1491;-82
2022/04/27 00:26:03;;;;;;;20.92;18.15;;;;;;;;;;513845;28;1551;-82
2022/04/27 00:26:18;;;;;;;21.27;18.20;;;;;;;;;;514050;28;1373;-82
2022/04/27 00:26:34;;;;;;;20.27;17.70;;;;;;;;;;513376;28;1842;-82
2022/04/27 00:26:49;;;;;;;20.17;17.87;;;;;;;;;;513252;28;1513;-82
2022/04/27 00:27:05;;;;;;;19.77;17.63;;;;;;;;;;514554;28;1656;-82
2022/04/27 00:27:20;;;;;;;19.83;17.35;;;;;;;;;;514683;28;1449;-82
2022/04/27 00:27:36;;;;;;;20.47;17.70;;;;;;;;;;514473;28;1524;-82
2022/04/27 00:27:51;;;;;;;20.33;17.65;;;;;;;;;;512515;28;1544;-82
2022/04/27 00:28:06;;;;;;;19.67;17.13;;;;;;;;;;514152;28;1733;-82
2022/04/27 00:28:22;;;;;;;20.10;17.57;;;;;;;;;;512511;28;1471;-83
2022/04/27 00:28:37;;;;;;;20.73;18.00;;;;;;;;;;512761;28;1597;-83
2022/04/27 00:28:54;;;;;;;20.43;17.63;;;;;;;;;;512553;28;1428;-83
2022/04/27 00:29:10;;;;;;;19.92;17.20;;;;;;;;;;512460;28;1616;-82
2022/04/27 00:29:25;;;;;;;19.53;17.30;;;;;;;;;;512322;28;1476;-83
2022/04/27 00:29:41;;;;;;;20.67;18.10;;;;;;;;;;513267;28;1310;-83
2022/04/27 00:29:57;;;;;;;21.45;18.58;;;;;;;;;;512599;28;1472;-82
2022/04/27 00:30:12;;;;;;;20.42;18.23;;;;;;;;;;512799;28;1616;-82
2022/04/27 00:30:28;;;;;;;20.33;17.95;;;;;;;;;;514198;28;1626;-82
2022/04/27 00:30:43;;;;;;;20.50;17.40;;;;;;;;;;513137;28;1635;-82
2022/04/27 00:30:59;;;;;;;20.17;17.30;;;;;;;;;;512274;28;1715;-82
2022/04/27 00:31:14;;;;;;;21.27;17.87;;;;;;;;;;512991;28;1978;-82
2022/04/27 00:31:31;;;;;;;21.33;17.80;;;;;;;;;;512428;28;1944;-82
2022/04/27 00:31:47;;;;;;;22.50;18.27;;;;;;;;;;510694;29;1547;-82
2022/04/27 00:32:02;;;;;;;22.47;18.70;;;;;;;;;;511129;28;1414;-82
2022/04/27 00:32:17;;;;;;;21.67;18.70;;;;;;;;;;512938;28;1773;-82
2022/04/27 00:32:33;;;;;;;22.95;18.50;;;;;;;;;;512612;28;1780;-82
2022/04/27 00:32:48;;;;;;;22.60;18.47;;;;;;;;;;512785;28;1603;-82
2022/04/27 00:33:04;;;;;;;22.60;18.77;;;;;;;;;;512478;28;1648;-82
2022/04/27 00:33:19;;;;;;;23.50;18.90;;;;;;;;;;513441;28;1587;-82
2022/04/27 00:33:34;;;;;;;22.63;18.90;;;;;;;;;;515045;28;1715;-82
2022/04/27 00:33:50;;;;;;;22.88;19.17;;;;;;;;;;514894;28;1463;-82
2022/04/27 00:34:05;;;;;;;23.53;19.57;;;;;;;;;;514951;28;1682;-82
2022/04/27 00:34:21;;;;;;;23.58;19.20;;;;;;;;;;514689;28;1515;-82
2022/04/27 00:34:36;;;;;;;23.40;18.90;;;;;;;;;;512529;28;1767;-82
2022/04/27 00:34:52;;;;;;;22.13;18.77;;;;;;;;;;510857;28;1460;-82
2022/04/27 00:35:08;;;;;;;21.73;18.63;;;;;;;;;;511170;28;1640;-82
2022/04/27 00:35:23;;;;;;;23.45;19.45;;;;;;;;;;511195;28;1557;-82
2022/04/27 00:35:39;;;;;;;23.83;19.60;;;;;;;;;;513006;28;1467;-82
2022/04/27 00:35:54;;;;;;;23.17;19.37;;;;;;;;;;514879;28;1630;-82
2022/04/27 00:36:10;;;;;;;22.77;19.13;;;;;;;;;;514347;28;1631;-82
2022/04/27 00:36:26;;;;;;;22.00;18.73;;;;;;;;;;515126;28;1563;-82
2022/04/27 00:36:41;;;;;;;22.42;18.35;;;;;;;;;;516063;28;1453;-82
2022/04/27 00:36:57;;;;;;;22.80;18.85;;;;;;;;;;515420;28;1591;-82
2022/04/27 00:37:12;;;;;;;23.70;19.43;;;;;;;;;;515705;28;1537;-82
2022/04/27 00:37:27;;;;;;;23.07;18.90;;;;;;;;;;516042;28;1571;-82
2022/04/27 00:37:43;;;;;;;23.27;19.45;;;;;;;;;;515672;28;1492;-82
2022/04/27 00:37:58;;;;;;;22.83;19.60;;;;;;;;;;514891;28;1519;-82
2022/04/27 00:38:14;;;;;;;22.40;19.43;;;;;;;;;;515469;28;1436;-82
2022/04/27 00:38:29;;;;;;;24.10;19.75;;;;;;;;;;514540;28;1409;-82
2022/04/27 00:38:45;;;;;;;23.63;19.67;;;;;;;;;;516671;28;1435;-82
2022/04/27 00:39:01;;;;;;;22.23;18.83;;;;;;;;;;516740;28;1618;-83
2022/04/27 00:39:17;;;;;;;21.30;18.45;;;;;;;;;;514259;28;1602;-83
2022/04/27 00:39:33;;;;;;;21.48;18.80;;;;;;;;;;514468;28;1706;-82
2022/04/27 00:39:48;;;;;;;22.63;18.90;;;;;;;;;;515229;28;1609;-82
2022/04/27 00:40:04;;;;;;;22.05;18.52;;;;;;;;;;517131;28;1952;-82
2022/04/27 00:40:19;;;;;;;21.75;18.63;;;;;;;;;;517573;28;1634;-82
2022/04/27 00:40:35;;;;;;;21.57;18.50;;;;;;;;;;518126;28;1534;-82
2022/04/27 00:40:50;;;;;;;21.87;18.60;;;;;;;;;;516756;28;1418;-82
2022/04/27 00:41:05;;;;;;;22.60;19.05;;;;;;;;;;516932;28;1610;-82
2022/04/27 00:41:21;;;;;;;24.37;19.43;;;;;;;;;;514791;28;1373;-82
2022/04/27 00:41:36;;;;;;;24.70;19.40;;;;;;;;;;515030;28;1731;-82
2022/04/27 00:42:01;;;;;;;24.03;19.03;;;;;;;;;;515024;28;1531;-82
2022/04/27 00:42:24;;;;;;;21.73;18.23;;;;;;;;;;514654;28;1536;-82
2022/04/27 00:42:39;;;;;;;21.77;18.40;;;;;;;;;;514741;28;1618;-82
2022/04/27 00:42:54;;;;;;;22.17;18.60;;;;;;;;;;513099;28;1575;-82
2022/04/27 00:43:14;;;;;;;22.57;18.87;;;;;;;;;;513036;28;1580;-82
2022/04/27 00:43:48;;;;;;;21.58;18.58;;;;;;;;;;512919;28;1464;-82
2022/04/27 00:44:03;;;;;;;22.25;18.70;;;;;;;;;;514679;28;1523;-82
2022/04/27 00:44:18;;;;;;;22.27;18.40;;;;;;;;;;514860;28;1596;-82
2022/04/27 00:44:33;;;;;;;23.10;18.60;;;;;;;;;;514485;28;1555;-82
2022/04/27 00:44:49;;;;;;;22.50;18.83;;;;;;;;;;515881;28;1391;-82
2022/04/27 00:45:06;;;;;;;21.30;18.73;;;;;;;;;;517645;28;1531;-82
2022/04/27 00:45:22;;;;;;;22.23;18.73;;;;;;;;;;517370;28;1459;-83
2022/04/27 00:45:37;;;;;;;22.25;18.55;;;;;;;;;;517217;28;1498;-83
2022/04/27 00:45:53;;;;;;;21.33;18.67;;;;;;;;;;517439;28;1452;-83
2022/04/27 00:46:09;;;;;;;21.30;18.63;;;;;;;;;;517109;28;1514;-83
2022/04/27 00:46:25;;;;;;;21.23;18.55;;;;;;;;;;517025;28;1550;-83
2022/04/27 00:46:41;;;;;;;21.25;18.60;;;;;;;;;;517507;28;1411;-82
2022/04/27 00:46:56;;;;;;;22.10;18.52;;;;;;;;;;517018;28;1663;-82
2022/04/27 00:47:13;;;;;;;21.80;18.70;;;;;;;;;;515953;28;1447;-82
2022/04/27 00:47:30;;;;;;;20.75;18.55;;;;;;;;;;515717;28;1520;-82
2022/04/27 00:47:45;;;;;;;21.42;19.13;;;;;;;;;;515855;28;1565;-82
2022/04/27 00:48:01;;;;;;;22.10;19.20;;;;;;;;;;515987;28;1392;-82
2022/04/27 00:48:16;;;;;;;20.73;18.15;;;;;;;;;;515820;28;1543;-82
2022/04/27 00:48:32;;;;;;;20.30;17.83;;;;;;;;;;516277;28;1443;-82
2022/04/27 00:48:47;;;;;;;20.77;18.15;;;;;;;;;;515265;28;1583;-82
2022/04/27 00:49:03;;;;;;;21.60;18.13;;;;;;;;;;515336;28;1428;-82
2022/04/27 00:49:18;;;;;;;21.13;18.17;;;;;;;;;;516430;28;1590;-82
2022/04/27 00:49:34;;;;;;;20.53;18.00;;;;;;;;;;514818;28;1486;-82
2022/04/27 00:49:51;;;;;;;20.00;17.85;;;;;;;;;;514212;28;1610;-82
2022/04/27 00:50:09;;;;;;;19.70;17.58;;;;;;;;;;515014;28;1458;-82
2022/04/27 00:50:24;;;;;;;20.90;18.30;;;;;;;;;;517167;28;1455;-82
2022/04/27 00:50:39;;;;;;;21.52;18.45;;;;;;;;;;516373;28;1676;-82
2022/04/27 00:50:56;;;;;;;21.10;18.10;;;;;;;;;;516454;28;1768;-82
2022/04/27 00:51:16;;;;;;;21.08;18.30;;;;;;;;;;516189;28;1915;-82
2022/04/27 00:51:32;;;;;;;21.95;19.13;;;;;;;;;;516640;28;1623;-82
2022/04/27 00:51:50;;;;;;;22.53;19.20;;;;;;;;;;517058;28;1703;-82
2022/04/27 00:52:05;;;;;;;21.75;18.95;;;;;;;;;;517059;28;1602;-82
2022/04/27 00:52:22;;;;;;;21.77;18.73;;;;;;;;;;517058;28;1504;-82
2022/04/27 00:52:38;;;;;;;21.23;18.30;;;;;;;;;;517525;28;1812;-82
2022/04/27 00:52:54;;;;;;;20.88;18.45;;;;;;;;;;515606;28;1642;-82
2022/04/27 00:53:09;;;;;;;21.77;18.77;;;;;;;;;;516168;28;1499;-82
2022/04/27 00:53:25;;;;;;;21.57;18.60;;;;;;;;;;517859;28;1502;-82
2022/04/27 00:53:43;;;;;;;21.27;18.65;;;;;;;;;;517657;28;1844;-82
2022/04/27 00:54:00;;;;;;;20.83;18.55;;;;;;;;;;517123;28;1462;-82
2022/04/27 00:54:16;;;;;;;20.60;18.40;;;;;;;;;;516705;28;1743;-83
2022/04/27 00:54:33;;;;;;;20.48;18.17;;;;;;;;;;516448;28;1496;-82
2022/04/27 00:54:52;;;;;;;20.52;17.80;;;;;;;;;;518034;28;1479;-83
2022/04/27 00:55:08;;;;;;;20.63;18.08;;;;;;;;;;515043;28;1513;-82
2022/04/27 00:55:24;;;;;;;20.45;17.92;;;;;;;;;;512968;28;1555;-82
2022/04/27 00:55:39;;;;;;;21.65;18.38;;;;;;;;;;513152;28;1449;-82
2022/04/27 00:55:57;;;;;;;21.67;18.90;;;;;;;;;;512119;28;1540;-82
2022/04/27 00:56:15;;;;;;;20.98;18.73;;;;;;;;;;512631;28;1623;-82
2022/04/27 00:56:31;;;;;;;21.30;18.48;;;;;;;;;;512319;28;1619;-82
2022/04/27 00:56:46;;;;;;;21.77;18.50;;;;;;;;;;512462;28;1394;-82
2022/04/27 00:57:02;;;;;;;22.53;18.67;;;;;;;;;;513508;28;1533;-82
2022/04/27 00:57:19;;;;;;;23.02;18.98;;;;;;;;;;514561;28;1624;-82
2022/04/27 00:57:36;;;;;;;21.63;18.80;;;;;;;;;;514264;28;1487;-82
2022/04/27 00:57:51;;;;;;;20.50;18.30;;;;;;;;;;515733;28;1551;-82
2022/04/27 00:58:09;;;;;;;21.07;18.70;;;;;;;;;;516915;28;1495;-82
2022/04/27 00:58:25;;;;;;;22.67;19.17;;;;;;;;;;516602;28;1682;-82
2022/04/27 00:58:47;;;;;;;21.50;18.17;;;;;;;;;;517702;28;1558;-82
2022/04/27 00:59:03;;;;;;;20.98;17.80;;;;;;;;;;518279;28;948;-85
2022/04/27 00:59:18;;;;;;;22.20;18.57;;;;;;;;;;516290;28;1429;-85
2022/04/27 00:59:34;;;;;;;22.03;18.90;;;;;;;;;;516388;28;774;-85
2022/04/27 00:59:50;;;;;;;22.83;18.67;;;;;;;;;;516141;28;1386;-85
2022/04/27 01:00:07;;;;;;;23.40;18.55;;;;;;;;;;516279;28;912;-85
2022/04/27 01:00:23;;;;;;;23.67;18.83;;;;;;;;;;516123;28;950;-85
2022/04/27 01:00:38;;;;;;;23.25;19.13;;;;;;;;;;515599;28;1232;-85
2022/04/27 01:00:54;;;;;;;21.98;19.13;;;;;;;;;;516212;28;852;-85
2022/04/27 01:01:11;;;;;;;21.40;19.10;;;;;;;;;;514161;28;1380;-85
2022/04/27 01:01:26;;;;;;;22.48;18.92;;;;;;;;;;514069;28;1419;-85
2022/04/27 01:01:41;;;;;;;23.10;18.60;;;;;;;;;;514856;28;1290;-86
2022/04/27 01:01:58;;;;;;;23.10;18.80;;;;;;;;;;516221;28;876;-85
2022/04/27 01:02:14;;;;;;;21.98;18.77;;;;;;;;;;514119;28;1343;-85
2022/04/27 01:02:29;;;;;;;21.25;18.38;;;;;;;;;;514847;28;1255;-85
2022/04/27 01:02:45;;;;;;;22.20;18.80;;;;;;;;;;516107;28;1078;-85
2022/04/27 01:03:01;;;;;;;22.48;19.38;;;;;;;;;;513911;28;1337;-85
2022/04/27 01:03:17;;;;;;;21.35;18.98;;;;;;;;;;514170;28;822;-85
2022/04/27 01:03:36;;;;;;;21.52;18.88;;;;;;;;;;515147;28;872;-85
2022/04/27 01:03:52;;;;;;;22.23;19.40;;;;;;;;;;516161;28;1342;-85
2022/04/27 01:04:08;;;;;;;23.70;19.70;;;;;;;;;;514281;28;1355;-85
2022/04/27 01:04:23;;;;;;;23.67;19.52;;;;;;;;;;515295;28;833;-85
2022/04/27 01:04:39;;;;;;;23.13;19.53;;;;;;;;;;514118;28;1276;-85
2022/04/27 01:04:54;;;;;;;24.17;20.30;;;;;;;;;;515289;28;1078;-85
2022/04/27 01:05:11;;;;;;;24.43;20.87;;;;;;;;;;516453;28;857;-84
2022/04/27 01:05:26;;;;;;;23.63;20.65;;;;;;;;;;516487;28;782;-84
2022/04/27 01:05:42;;;;;;;23.38;20.05;;;;;;;;;;516368;28;821;-85
2022/04/27 01:05:58;;;;;;;23.40;19.80;;;;;;;;;;514236;28;1264;-85
2022/04/27 01:06:13;;;;;;;22.58;19.70;;;;;;;;;;512211;28;1269;-85
2022/04/27 01:06:30;;;;;;;21.83;19.42;;;;;;;;;;512728;28;1238;-85
2022/04/27 01:06:45;;;;;;;21.25;18.65;;;;;;;;;;514427;28;818;-85
2022/04/27 01:07:01;;;;;;;21.90;18.50;;;;;;;;;;512297;29;1197;-85
2022/04/27 01:07:17;;;;;;;22.08;18.90;;;;;;;;;;510319;29;1279;-85
2022/04/27 01:07:32;;;;;;;21.50;18.77;;;;;;;;;;510200;29;1197;-85
2022/04/27 01:07:48;;;;;;;21.97;18.60;;;;;;;;;;512246;29;1210;-85
2022/04/27 01:08:03;;;;;;;22.83;19.15;;;;;;;;;;512832;28;813;-85
2022/04/27 01:08:22;;;;;;;23.23;20.27;;;;;;;;;;512219;29;1313;-85
2022/04/27 01:08:38;;;;;;;24.40;21.20;;;;;;;;;;512149;29;1022;-85
2022/04/27 01:08:54;;;;;;;25.05;20.95;;;;;;;;;;513182;28;956;-85
2022/04/27 01:09:10;;;;;;;23.88;20.38;;;;;;;;;;515177;28;832;-85
2022/04/27 01:09:28;;;;;;;23.45;19.80;;;;;;;;;;516171;28;1051;-85
2022/04/27 01:09:43;;;;;;;23.60;19.67;;;;;;;;;;517466;28;1213;-85
2022/04/27 01:09:59;;;;;;;22.20;19.08;;;;;;;;;;518389;28;1293;-84
2022/04/27 01:10:16;;;;;;;21.95;18.83;;;;;;;;;;519728;28;1268;-85
2022/04/27 01:10:32;;;;;;;22.40;19.33;;;;;;;;;;520346;28;1006;-85
2022/04/27 01:10:48;;;;;;;22.80;19.27;;;;;;;;;;520442;28;1195;-84
2022/04/27 01:11:05;;;;;;;22.33;19.10;;;;;;;;;;518360;28;1288;-85
2022/04/27 01:11:21;;;;;;;23.23;19.42;;;;;;;;;;518213;28;1967;-85
2022/04/27 01:11:36;;;;;;;22.90;19.43;;;;;;;;;;518365;28;1184;-85
2022/04/27 01:11:53;;;;;;;22.92;19.48;;;;;;;;;;517459;28;1022;-85
2022/04/27 01:12:09;;;;;;;22.88;19.77;;;;;;;;;;516292;28;1214;-85
2022/04/27 01:12:25;;;;;;;23.77;19.90;;;;;;;;;;518448;28;1297;-85
2022/04/27 01:12:41;;;;;;;24.25;19.80;;;;;;;;;;517217;28;1264;-85
2022/04/27 01:12:57;;;;;;;23.83;19.95;;;;;;;;;;515371;28;856;-85
2022/04/27 01:13:13;;;;;;;24.77;20.40;;;;;;;;;;514160;28;1450;-85
2022/04/27 01:13:28;;;;;;;23.65;19.92;;;;;;;;;;514386;28;884;-84
2022/04/27 01:13:45;;;;;;;22.67;19.80;;;;;;;;;;514306;28;1368;-84
2022/04/27 01:14:00;;;;;;;23.40;19.90;;;;;;;;;;514451;28;903;-85
2022/04/27 01:14:15;;;;;;;22.42;19.65;;;;;;;;;;514464;28;901;-85
2022/04/27 01:14:50;;;;;;;21.77;19.43;;;;;;;;;;514901;28;1245;-84
2022/04/27 01:15:07;;;;;;;21.48;19.13;;;;;;;;;;516103;28;972;-85
2022/04/27 01:15:36;;;;;;;22.33;19.73;;;;;;;;;;516093;28;1280;-85
2022/04/27 01:15:51;;;;;;;21.85;19.20;;;;;;;;;;518313;28;942;-85
2022/04/27 01:16:07;;;;;;;22.35;19.63;;;;;;;;;;516399;28;1283;-85
2022/04/27 01:16:22;;;;;;;22.70;19.77;;;;;;;;;;514062;28;1198;-85
2022/04/27 01:16:38;;;;;;;22.23;19.83;;;;;;;;;;514247;28;754;-85
2022/04/27 01:16:55;;;;;;;22.73;20.10;;;;;;;;;;514155;28;1251;-85
2022/04/27 01:17:11;;;;;;;24.40;20.90;;;;;;;;;;514509;28;1556;-85
2022/04/27 01:17:26;;;;;;;25.05;21.33;;;;;;;;;;514070;28;1390;-85
2022/04/27 01:17:41;;;;;;;24.08;20.75;;;;;;;;;;514023;28;1281;-85
2022/04/27 01:18:00;;;;;;;23.57;20.50;;;;;;;;;;512110;28;1271;-85
2022/04/27 01:18:16;;;;;;;22.13;19.73;;;;;;;;;;512180;29;1388;-85
2022/04/27 01:18:31;;;;;;;22.60;19.88;;;;;;;;;;512176;29;892;-85
2022/04/27 01:18:46;;;;;;;23.90;20.30;;;;;;;;;;511362;29;833;-85
2022/04/27 01:19:02;;;;;;;24.95;20.83;;;;;;;;;;512223;28;1698;-85
2022/04/27 01:19:23;;;;;;;24.30;20.85;;;;;;;;;;514903;28;1281;-85
2022/04/27 01:19:38;;;;;;;24.27;21.27;;;;;;;;;;510965;28;1590;-84
2022/04/27 01:19:53;;;;;;;24.67;21.00;;;;;;;;;;512051;28;1509;-84
2022/04/27 01:20:10;;;;;;;24.30;20.73;;;;;;;;;;511223;28;1633;-84
2022/04/27 01:20:47;;;;;;;24.08;20.75;;;;;;;;;;512180;28;1607;-84
2022/04/27 01:21:03;;;;;;;23.13;20.02;;;;;;;;;;512179;28;1578;-84
2022/04/27 01:21:19;;;;;;;23.20;20.13;;;;;;;;;;514541;28;1412;-84
2022/04/27 01:21:34;;;;;;;22.23;19.57;;;;;;;;;;516104;28;1697;-84
2022/04/27 01:21:50;;;;;;;21.70;19.05;;;;;;;;;;517310;28;1614;-84
2022/04/27 01:22:06;;;;;;;21.77;19.33;;;;;;;;;;516204;28;1412;-84
2022/04/27 01:22:21;;;;;;;22.50;20.10;;;;;;;;;;516021;28;1436;-84
2022/04/27 01:22:37;;;;;;;22.70;20.27;;;;;;;;;;514923;28;1456;-84
2022/04/27 01:22:52;;;;;;;23.00;19.85;;;;;;;;;;514145;28;1536;-84
2022/04/27 01:23:08;;;;;;;23.07;19.43;;;;;;;;;;514523;28;1389;-84
2022/04/27 01:23:24;;;;;;;22.33;19.67;;;;;;;;;;512681;28;1662;-84
2022/04/27 01:23:39;;;;;;;22.30;19.85;;;;;;;;;;512473;28;1650;-84
2022/04/27 01:23:55;;;;;;;23.37;20.20;;;;;;;;;;510879;28;1536;-84
2022/04/27 01:24:11;;;;;;;23.85;20.40;;;;;;;;;;513120;28;1524;-84
2022/04/27 01:24:27;;;;;;;22.83;19.92;;;;;;;;;;513980;28;1933;-84
2022/04/27 01:24:44;;;;;;;22.55;19.80;;;;;;;;;;515077;28;1680;-84
2022/04/27 01:24:59;;;;;;;23.33;20.38;;;;;;;;;;512862;28;1445;-84
2022/04/27 01:25:15;;;;;;;23.20;20.50;;;;;;;;;;512574;28;1543;-83
2022/04/27 01:25:50;;;;;;;22.50;19.77;;;;;;;;;;513361;28;1445;-84
2022/04/27 01:26:06;;;;;;;23.42;20.17;;;;;;;;;;514306;28;1620;-84
2022/04/27 01:26:21;;;;;;;22.63;19.75;;;;;;;;;;512770;28;1456;-84
2022/04/27 01:26:37;;;;;;;22.33;19.90;;;;;;;;;;512603;28;1638;-84
2022/04/27 01:26:53;;;;;;;22.75;20.27;;;;;;;;;;510832;28;1544;-84
2022/04/27 01:27:09;;;;;;;22.20;19.80;;;;;;;;;;510851;28;1504;-84
2022/04/27 01:27:24;;;;;;;22.87;19.90;;;;;;;;;;510114;28;1814;-84
2022/04/27 01:27:43;;;;;;;23.98;20.38;;;;;;;;;;508795;29;1700;-84
2022/04/27 01:27:58;;;;;;;24.30;20.35;;;;;;;;;;510828;29;1445;-84
2022/04/27 01:28:16;;;;;;;23.47;20.50;;;;;;;;;;510865;28;1697;-84
2022/04/27 01:28:33;;;;;;;22.90;20.27;;;;;;;;;;512586;28;1428;-84
2022/04/27 01:28:48;;;;;;;22.30;19.85;;;;;;;;;;511591;28;1575;-84
2022/04/27 01:29:04;;;;;;;22.40;20.00;;;;;;;;;;512493;28;1520;-84
2022/04/27 01:29:24;;;;;;;23.20;20.70;;;;;;;;;;513158;28;1499;-84
2022/04/27 01:29:39;;;;;;;23.10;20.60;;;;;;;;;;517961;28;1672;-84
2022/04/27 01:29:55;;;;;;;22.93;20.33;;;;;;;;;;515497;28;1472;-84
2022/04/27 01:30:11;;;;;;;23.48;20.90;;;;;;;;;;515133;28;1493;-83
2022/04/27 01:30:28;;;;;;;24.52;21.60;;;;;;;;;;515715;28;1412;-84
2022/04/27 01:30:44;;;;;;;26.55;21.83;;;;;;;;;;515908;28;1642;-84
2022/04/27 01:31:01;;;;;;;26.08;21.50;;;;;;;;;;517894;28;1459;-84
2022/04/27 01:31:17;;;;;;;24.92;21.85;;;;;;;;;;518851;28;1918;-84
2022/04/27 01:31:33;;;;;;;25.33;21.77;;;;;;;;;;518401;28;1909;-84
2022/04/27 01:31:49;;;;;;;24.92;21.92;;;;;;;;;;517294;28;1376;-84
2022/04/27 01:32:05;;;;;;;25.05;22.27;;;;;;;;;;518013;28;1450;-84
2022/04/27 01:32:20;;;;;;;25.45;21.90;;;;;;;;;;518801;28;2197;-83
2022/04/27 01:32:36;;;;;;;25.93;21.73;;;;;;;;;;518008;28;1558;-83
2022/04/27 01:32:52;;;;;;;26.20;21.83;;;;;;;;;;516588;28;1566;-84
2022/04/27 01:33:08;;;;;;;26.27;21.80;;;;;;;;;;514936;28;1480;-84
2022/04/27 01:33:24;;;;;;;25.58;21.42;;;;;;;;;;514776;28;1602;-84
2022/04/27 01:33:40;;;;;;;25.33;21.27;;;;;;;;;;514753;28;1742;-84
2022/04/27 01:33:55;;;;;;;25.58;21.17;;;;;;;;;;514831;28;1634;-83
2022/04/27 01:34:12;;;;;;;24.50;20.83;;;;;;;;;;514238;28;1448;-84
2022/04/27 01:34:28;;;;;;;24.27;20.95;;;;;;;;;;513606;28;1449;-84
2022/04/27 01:34:44;;;;;;;25.17;21.48;;;;;;;;;;514869;28;1584;-84
2022/04/27 01:34:59;;;;;;;24.67;21.55;;;;;;;;;;516055;28;1423;-84
2022/04/27 01:35:15;;;;;;;23.90;21.30;;;;;;;;;;514774;28;1476;-84
2022/04/27 01:35:30;;;;;;;24.60;21.63;;;;;;;;;;512970;28;1413;-84
2022/04/27 01:35:45;;;;;;;25.83;21.73;;;;;;;;;;515055;28;1521;-84
2022/04/27 01:36:10;;;;;;;25.00;21.07;;;;;;;;;;516181;28;1449;-84
2022/04/27 01:36:25;;;;;;;23.75;20.75;;;;;;;;;;514986;28;2021;-84
2022/04/27 01:36:41;;;;;;;24.33;21.07;;;;;;;;;;514359;28;1749;-83
2022/04/27 01:37:59;;;;;;;24.50;21.60;;;;;;;;;;514949;28;1786;-84
2022/04/27 01:38:07;;;;;;;24.05;21.25;;;;;;;;;;520089;28;1636;-84